KSF weather

Public forecast

Using degrees Celsius for public forecast. Weather courtesy of forecast.io.

Current aviation weather report (METAR) for Kassel-Calden Airport

Retrieved 2020/08/15 03:50 UTC (49 minutes ago):

EDVK 150350Z 24002KT 9999 MIFG NSC 16/16 Q1015

Aviation forecast (TAF) for Kassel-Calden Airport

Forecast is more than 12 hours old.

Retrieved 2011/03/23 07:09 UTC (9 years ago):

TAF COR EDVK 230655Z 2307/2321 30002KT 3500 BR SCT025 PROB30 TEMPO 2307/2309 1400 BCFG BECMG 2307/2310 01007KT 8000